Time;durP1;ratioP1;P1;durP2;ratioP2;P2;SDS_P1;SDS_P2;PMS_P1;PMS_P2;Temp;Humidity;BMP_temperature;BMP_pressure;BME280_temperature;BME280_humidity;BME280_pressure;Samples;Min_cycle;Max_cycle;Signal;HPM_P1;HPM_P2
2022/09/18 00:00:07;;;;;;;2.83;0.40;;;10.60;99.90;;;;;;5091264;28;20111;-56
2022/09/18 00:02:33;;;;;;;5.80;0.50;;;10.50;99.90;;;;;;5089713;28;20047;-56
2022/09/18 00:04:58;;;;;;;4.27;0.70;;;10.50;99.90;;;;;;5098770;28;20484;-57
2022/09/18 00:07:24;;;;;;;5.77;0.60;;;10.50;99.90;;;;;;5090528;28;20792;-56
2022/09/18 00:09:49;;;;;;;9.00;0.70;;;10.40;99.90;;;;;;5106824;28;20036;-57
2022/09/18 00:12:15;;;;;;;6.40;0.80;;;10.40;99.90;;;;;;5111128;28;20750;-56
2022/09/18 00:14:40;;;;;;;4.13;0.50;;;10.50;99.90;;;;;;5093574;28;20036;-56
2022/09/18 00:17:06;;;;;;;9.23;0.60;;;10.50;99.90;;;;;;5090302;28;20081;-55
2022/09/18 00:19:31;;;;;;;4.20;0.60;;;10.50;99.90;;;;;;5105128;28;20368;-55
2022/09/18 00:21:57;;;;;;;7.40;0.70;;;10.50;99.90;;;;;;5104291;28;20040;-57
2022/09/18 00:24:23;;;;;;;8.70;0.80;;;10.60;99.90;;;;;;5102891;28;20039;-57
2022/09/18 00:26:49;;;;;;;3.28;0.68;;;10.60;99.90;;;;;;5092595;28;20128;-57
2022/09/18 00:29:16;;;;;;;10.00;0.60;;;10.60;99.90;;;;;;5107890;28;20040;-57
2022/09/18 00:31:43;;;;;;;9.98;0.88;;;10.60;99.90;;;;;;5100567;28;20054;-57
2022/09/18 00:34:13;;;;;;;5.95;0.70;;;10.60;99.90;;;;;;5100195;28;20036;-56
2022/09/18 00:36:39;;;;;;;5.38;0.73;;;10.60;99.90;;;;;;5101170;28;20039;-57
2022/09/18 00:39:06;;;;;;;4.22;0.52;;;10.60;99.90;;;;;;5101576;28;20040;-57
2022/09/18 00:41:33;;;;;;;;;;;10.50;99.90;;;;;;5090652;28;20242;-57
2022/09/18 00:44:36;;;;;;;5.57;0.80;;;10.50;99.90;;;;;;5097099;28;20288;-56
2022/09/18 00:47:11;;;;;;;10.13;1.10;;;10.40;99.90;;;;;;5086281;28;20049;-56
2022/09/18 00:49:40;;;;;;;6.13;0.60;;;10.40;99.90;;;;;;5098136;28;20118;-57
2022/09/18 00:52:06;;;;;;;6.50;0.50;;;10.40;99.90;;;;;;5104163;28;20040;-55
2022/09/18 00:54:44;;;;;;;4.50;1.33;;;10.40;99.90;;;;;;5099543;28;20089;-57
2022/09/18 00:57:17;;;;;;;6.47;0.70;;;10.40;99.90;;;;;;5091973;28;20119;-57
2022/09/18 00:59:45;;;;;;;10.20;1.65;;;10.30;99.90;;;;;;5100733;28;20114;-58
2022/09/18 01:02:11;;;;;;;5.63;0.82;;;10.30;99.90;;;;;;5105441;28;20039;-55
2022/09/18 01:04:37;;;;;;;7.75;1.27;;;10.30;99.90;;;;;;5099368;28;20040;-57
2022/09/18 01:07:29;;;;;;;6.47;1.15;;;10.30;99.90;;;;;;5100426;28;20046;-56
2022/09/18 01:10:09;;;;;;;4.00;0.40;;;10.30;99.90;;;;;;5098943;28;20132;-57
2022/09/18 01:12:47;;;;;;;9.52;0.50;;;10.30;99.90;;;;;;5090476;28;20071;-56
2022/09/18 01:15:21;;;;;;;8.10;0.90;;;10.40;99.90;;;;;;5096451;28;20057;-55
2022/09/18 01:18:00;;;;;;;10.13;1.05;;;10.40;99.90;;;;;;5078045;28;20036;-55
2022/09/18 01:21:03;;;;;;;9.25;0.90;;;10.40;99.90;;;;;;5090291;28;20040;-57
2022/09/18 01:24:13;;;;;;;12.30;1.70;;;10.40;99.90;;;;;;5089643;28;20044;-56
2022/09/18 01:27:00;;;;;;;9.70;1.02;;;10.50;99.90;;;;;;5081460;28;20087;-57
2022/09/18 01:29:36;;;;;;;10.57;1.58;;;10.50;99.90;;;;;;5069980;28;20041;-57
2022/09/18 01:32:22;;;;;;;5.95;1.27;;;10.50;99.90;;;;;;5069180;28;20040;-57
2022/09/18 01:35:06;;;;;;;7.32;0.50;;;10.60;99.90;;;;;;5072678;28;20048;-58
2022/09/18 01:37:47;;;;;;;4.32;0.55;;;10.60;99.90;;;;;;5074381;28;20405;-56
2022/09/18 01:40:16;;;;;;;13.95;1.58;;;10.60;99.90;;;;;;5073460;28;20088;-57
2022/09/18 01:42:45;;;;;;;11.05;1.73;;;10.70;99.90;;;;;;5073092;28;20088;-57
2022/09/18 01:45:15;;;;;;;7.28;0.50;;;10.70;99.90;;;;;;5073014;28;20489;-56
2022/09/18 01:47:50;;;;;;;6.78;0.52;;;10.70;99.90;;;;;;5073100;28;20036;-57
2022/09/18 01:50:17;;;;;;;16.38;1.67;;;10.70;99.90;;;;;;5073431;28;20055;-57
2022/09/18 01:52:49;;;;;;;10.75;1.27;;;10.80;99.90;;;;;;5085785;28;20370;-57
2022/09/18 01:55:19;;;;;;;6.45;1.05;;;10.80;99.90;;;;;;5101724;28;20063;-57
2022/09/18 01:58:01;;;;;;;7.53;0.52;;;10.80;99.90;;;;;;5098274;27;20039;-57
2022/09/18 02:00:30;;;;;;;12.38;1.13;;;10.90;99.90;;;;;;5090295;28;20127;-57
2022/09/18 02:03:10;;;;;;;7.72;0.75;;;10.90;99.90;;;;;;5088278;27;20044;-57
2022/09/18 02:05:44;;;;;;;8.93;0.80;;;10.90;99.90;;;;;;5084893;28;20090;-58
2022/09/18 02:08:18;;;;;;;7.78;1.10;;;10.90;99.90;;;;;;5092692;28;20047;-58
2022/09/18 02:10:58;;;;;;;7.00;1.10;;;10.90;99.90;;;;;;5093318;28;20048;-56
2022/09/18 02:13:31;;;;;;;9.52;1.55;;;11.00;99.90;;;;;;5112873;27;20046;-56
2022/09/18 02:16:00;;;;;;;7.68;1.05;;;11.00;99.90;;;;;;5094485;28;20416;-56
2022/09/18 02:18:35;;;;;;;5.07;0.60;;;11.10;99.90;;;;;;5093348;28;20101;-57
2022/09/18 02:21:01;;;;;;;8.63;0.95;;;11.10;99.90;;;;;;5093639;28;20040;-55
2022/09/18 02:23:28;;;;;;;8.50;0.90;;;11.10;99.90;;;;;;5093250;28;20050;-57
2022/09/18 02:25:58;;;;;;;5.55;0.52;;;11.10;99.90;;;;;;5092034;28;20516;-57
2022/09/18 02:28:26;;;;;;;10.90;1.08;;;11.10;99.90;;;;;;5111453;27;20492;-55
2022/09/18 02:30:52;;;;;;;6.03;0.57;;;11.10;99.90;;;;;;5102417;28;20126;-56
2022/09/18 02:33:29;;;;;;;11.30;1.33;;;11.10;99.90;;;;;;5109930;28;20411;-57
2022/09/18 02:36:06;;;;;;;10.68;1.13;;;11.10;99.90;;;;;;5089353;28;20036;-56
2022/09/18 02:38:50;;;;;;;5.35;0.65;;;11.10;99.90;;;;;;5102576;28;20044;-56
2022/09/18 02:41:28;;;;;;;6.68;0.85;;;11.10;99.90;;;;;;5073012;28;20119;-55
2022/09/18 02:44:12;;;;;;;12.50;1.30;;;11.10;99.90;;;;;;5078954;28;20050;-55
2022/09/18 02:47:03;;;;;;;5.35;0.93;;;11.10;99.90;;;;;;5091041;28;20079;-55
2022/09/18 02:49:59;;;;;;;6.13;1.38;;;11.10;99.90;;;;;;5092525;28;20082;-55
2022/09/18 02:52:34;;;;;;;11.80;0.80;;;11.10;99.90;;;;;;5090274;28;20040;-55
2022/09/18 02:55:08;;;;;;;9.85;1.15;;;11.10;99.90;;;;;;5091699;28;20162;-56
2022/09/18 02:57:50;;;;;;;6.82;1.00;;;11.10;99.90;;;;;;5091749;28;20032;-58
2022/09/18 03:00:17;;;;;;;4.35;0.40;;;11.10;99.90;;;;;;5092318;28;20074;-57
2022/09/18 03:02:44;;;;;;;7.28;1.33;;;11.20;99.90;;;;;;5076801;28;20433;-57
2022/09/18 03:05:12;;;;;;;8.93;0.65;;;11.20;99.90;;;;;;5071419;28;20044;-58
2022/09/18 03:07:38;;;;;;;6.03;0.70;;;11.20;99.90;;;;;;5071727;28;20037;-57
2022/09/18 03:10:04;;;;;;;6.82;1.05;;;11.20;99.90;;;;;;5080754;28;20036;-58
2022/09/18 03:12:30;;;;;;;5.88;0.75;;;11.20;99.90;;;;;;5094655;28;20044;-58
2022/09/18 03:14:55;;;;;;;8.45;0.93;;;11.20;99.90;;;;;;5090441;28;20042;-58
2022/09/18 03:17:21;;;;;;;6.13;0.47;;;11.20;99.90;;;;;;5081421;28;20114;-58
2022/09/18 03:19:47;;;;;;;5.13;0.60;;;11.20;99.90;;;;;;5103229;28;20024;-57
2022/09/18 03:22:13;;;;;;;8.68;0.40;;;11.20;99.90;;;;;;5090065;28;20047;-58
2022/09/18 03:24:38;;;;;;;5.53;0.68;;;11.20;99.90;;;;;;5069090;28;20471;-56
2022/09/18 03:27:05;;;;;;;7.53;1.30;;;11.20;99.90;;;;;;5071486;28;20033;-56
2022/09/18 03:29:31;;;;;;;7.70;0.75;;;11.20;99.90;;;;;;5071341;28;20085;-57
2022/09/18 03:31:57;;;;;;;10.57;0.82;;;11.30;99.90;;;;;;5071165;28;20468;-57
2022/09/18 03:34:22;;;;;;;5.38;0.40;;;11.30;99.90;;;;;;5085597;28;20039;-58
2022/09/18 03:36:48;;;;;;;10.80;1.40;;;11.30;99.90;;;;;;5073083;28;20040;-56
2022/09/18 03:39:14;;;;;;;5.40;0.50;;;11.20;99.90;;;;;;5081266;28;20032;-57
2022/09/18 03:41:39;;;;;;;6.57;0.37;;;11.20;99.90;;;;;;5076465;28;20047;-58
2022/09/18 03:44:05;;;;;;;4.00;0.83;;;11.30;99.90;;;;;;5089326;28;20286;-57
2022/09/18 03:46:30;;;;;;;8.20;0.57;;;11.30;99.90;;;;;;5091019;28;20032;-58
2022/09/18 03:48:56;;;;;;;4.50;0.60;;;11.30;99.90;;;;;;5091179;28;20293;-58
2022/09/18 03:51:22;;;;;;;8.18;0.73;;;11.30;99.90;;;;;;5091396;28;20044;-57
2022/09/18 03:53:47;;;;;;;7.50;0.67;;;11.30;99.90;;;;;;5089891;28;20059;-58
2022/09/18 03:56:14;;;;;;;4.97;0.22;;;11.30;99.90;;;;;;5098164;28;20035;-55
2022/09/18 03:58:40;;;;;;;;;;;11.30;99.90;;;;;;5111233;28;20043;-57
2022/09/18 04:01:06;;;;;;;6.95;0.82;;;11.30;99.90;;;;;;5103420;28;20266;-57
2022/09/18 04:03:32;;;;;;;2.55;0.52;;;11.40;99.90;;;;;;5090677;28;20051;-58
2022/09/18 04:05:58;;;;;;;4.25;0.63;;;11.40;99.90;;;;;;5101850;28;20039;-58
2022/09/18 04:08:24;;;;;;;7.78;0.80;;;11.40;99.90;;;;;;5089440;28;20047;-58
2022/09/18 04:10:49;;;;;;;7.40;0.80;;;11.40;99.90;;;;;;5095454;28;20047;-57
2022/09/18 04:13:15;;;;;;;5.67;0.53;;;11.40;99.90;;;;;;5099674;28;20043;-56
2022/09/18 04:15:43;;;;;;;1.48;0.20;;;11.40;99.90;;;;;;5102924;28;20048;-56
2022/09/18 04:18:08;;;;;;;6.68;1.05;;;11.40;99.90;;;;;;5092409;28;20036;-55
2022/09/18 04:20:34;;;;;;;12.37;0.60;;;11.40;99.90;;;;;;5072957;28;20456;-57
2022/09/18 04:23:00;;;;;;;8.67;0.87;;;11.40;99.90;;;;;;5110372;28;20395;-57
2022/09/18 04:25:25;;;;;;;3.27;0.30;;;11.40;99.90;;;;;;5098099;28;20281;-58
2022/09/18 04:27:51;;;;;;;4.03;0.60;;;11.30;99.90;;;;;;5090808;28;20071;-57
2022/09/18 04:30:16;;;;;;;9.10;0.70;;;11.30;99.90;;;;;;5089823;28;20114;-56
2022/09/18 04:32:45;;;;;;;7.80;0.30;;;11.30;99.90;;;;;;5090778;28;20049;-56
2022/09/18 04:35:11;;;;;;;4.47;0.30;;;11.30;99.90;;;;;;5091136;28;20036;-57
2022/09/18 04:37:37;;;;;;;5.82;0.65;;;11.30;99.90;;;;;;5102023;28;20068;-57
2022/09/18 04:40:05;;;;;;;4.65;0.60;;;11.30;99.90;;;;;;5090448;28;20553;-56
2022/09/18 04:42:31;;;;;;;4.43;0.60;;;11.20;99.90;;;;;;5096610;28;20036;-56
2022/09/18 04:44:56;;;;;;;4.30;0.55;;;11.20;99.90;;;;;;5090250;28;20032;-57
2022/09/18 04:47:22;;;;;;;2.30;0.30;;;11.20;99.90;;;;;;5103864;28;20035;-56
2022/09/18 04:49:47;;;;;;;8.38;0.50;;;11.20;99.90;;;;;;5105153;28;20357;-56
2022/09/18 04:52:13;;;;;;;6.67;1.00;;;11.20;99.90;;;;;;5099646;28;20165;-56
2022/09/18 04:54:39;;;;;;;2.93;0.40;;;11.20;99.90;;;;;;5093228;28;20054;-57
2022/09/18 04:57:04;;;;;;;6.03;0.50;;;11.10;99.90;;;;;;5099585;28;20036;-57
2022/09/18 04:59:30;;;;;;;3.28;0.28;;;11.10;99.90;;;;;;5110466;28;20036;-57
2022/09/18 05:01:55;;;;;;;5.50;0.40;;;11.10;99.90;;;;;;5103646;28;20531;-57
2022/09/18 05:04:21;;;;;;;6.13;0.50;;;11.10;99.90;;;;;;5090928;28;20365;-56
2022/09/18 05:06:47;;;;;;;3.43;0.50;;;11.10;99.90;;;;;;5091478;28;20044;-57
2022/09/18 05:09:12;;;;;;;10.98;1.70;;;11.10;99.90;;;;;;5111701;28;20043;-56
2022/09/18 05:11:38;;;;;;;3.40;0.40;;;11.20;99.90;;;;;;5114038;28;20112;-57
2022/09/18 05:14:04;;;;;;;3.50;0.53;;;11.20;99.90;;;;;;5095219;28;20665;-56
2022/09/18 05:16:29;;;;;;;5.90;0.50;;;11.20;99.90;;;;;;5093300;28;20064;-58
2022/09/18 05:18:55;;;;;;;10.90;1.20;;;11.20;99.90;;;;;;5105590;28;20039;-57
2022/09/18 05:21:21;;;;;;;6.28;0.40;;;11.20;99.90;;;;;;5072127;28;20301;-56
2022/09/18 05:23:46;;;;;;;2.72;0.50;;;11.20;99.90;;;;;;5076516;28;20481;-57
2022/09/18 05:26:12;;;;;;;9.57;1.02;;;11.20;99.90;;;;;;5074922;28;20050;-57
2022/09/18 05:28:38;;;;;;;4.20;0.68;;;11.20;99.90;;;;;;5074222;28;20036;-56
2022/09/18 05:31:03;;;;;;;8.83;0.40;;;11.20;99.90;;;;;;5076651;28;20533;-57
2022/09/18 05:33:29;;;;;;;10.25;0.80;;;11.20;99.90;;;;;;5104007;28;20036;-58
2022/09/18 05:35:56;;;;;;;3.83;1.05;;;11.30;99.90;;;;;;5094229;28;20048;-56
2022/09/18 05:38:23;;;;;;;7.00;0.75;;;11.30;99.90;;;;;;5101569;28;20040;-57
2022/09/18 05:40:49;;;;;;;7.80;0.73;;;11.30;99.90;;;;;;5076653;28;20055;-56
2022/09/18 05:43:15;;;;;;;4.75;0.30;;;11.30;99.90;;;;;;5073195;28;20040;-57
2022/09/18 05:45:41;;;;;;;6.65;0.98;;;11.30;99.90;;;;;;5073151;28;20505;-56
2022/09/18 05:48:07;;;;;;;;;;;11.30;99.90;;;;;;5086060;28;20040;-57
2022/09/18 05:50:35;;;;;;;7.95;0.80;;;11.30;99.90;;;;;;5089627;28;20501;-58
2022/09/18 05:53:15;;;;;;;5.82;0.65;;;11.30;99.90;;;;;;5111066;28;20035;-57
2022/09/18 05:55:41;;;;;;;4.85;0.68;;;11.30;99.90;;;;;;5113729;28;20028;-57
2022/09/18 05:58:11;;;;;;;5.45;1.15;;;11.30;99.90;;;;;;5090035;28;20455;-57
2022/09/18 06:00:36;;;;;;;5.90;2.20;;;11.30;99.90;;;;;;5078158;28;20036;-57
2022/09/18 06:03:05;;;;;;;7.40;1.33;;;11.30;99.90;;;;;;5096729;28;20047;-56
2022/09/18 06:05:33;;;;;;;12.48;11.18;;;11.30;99.90;;;;;;5093519;28;20134;-57
2022/09/18 06:08:00;;;;;;;7.32;5.22;;;11.30;99.90;;;;;;5093375;28;20048;-58
2022/09/18 06:10:28;;;;;;;12.05;1.90;;;11.30;99.90;;;;;;5073473;28;20561;-58
2022/09/18 06:13:07;;;;;;;9.05;6.28;;;11.30;99.90;;;;;;5072802;28;20047;-58
2022/09/18 06:15:34;;;;;;;7.50;6.82;;;11.30;99.90;;;;;;5079004;28;20036;-58
2022/09/18 06:18:00;;;;;;;9.52;2.40;;;11.30;99.90;;;;;;5089774;28;20106;-57
2022/09/18 06:20:26;;;;;;;6.13;1.38;;;11.30;99.90;;;;;;5098018;28;20049;-58
2022/09/18 06:22:51;;;;;;;4.20;2.25;;;11.30;99.90;;;;;;5103108;28;20073;-57
2022/09/18 06:25:20;;;;;;;8.00;2.10;;;11.30;99.90;;;;;;5101243;28;20127;-57
2022/09/18 06:27:57;;;;;;;7.15;2.00;;;11.30;99.90;;;;;;5101140;28;20424;-58
2022/09/18 06:30:27;;;;;;;4.07;0.95;;;11.40;99.90;;;;;;5106515;28;20048;-57
2022/09/18 06:32:55;;;;;;;8.85;5.47;;;11.40;99.90;;;;;;5106287;28;20039;-56
2022/09/18 06:35:21;;;;;;;8.90;3.50;;;11.30;99.90;;;;;;5103166;28;20508;-56
2022/09/18 06:37:47;;;;;;;15.65;11.40;;;11.30;99.90;;;;;;5092806;28;20044;-57
2022/09/18 06:40:12;;;;;;;8.73;5.80;;;11.30;99.90;;;;;;5076841;28;20036;-57
2022/09/18 06:42:38;;;;;;;6.90;1.70;;;11.30;99.90;;;;;;5071993;28;20037;-58
2022/09/18 06:45:04;;;;;;;7.30;3.25;;;11.30;99.90;;;;;;5072993;28;20115;-57
2022/09/18 06:47:30;;;;;;;7.57;2.95;;;11.30;99.90;;;;;;5091799;28;20047;-57
2022/09/18 06:49:55;;;;;;;3.63;0.87;;;11.30;99.90;;;;;;5091945;28;20039;-56
2022/09/18 06:52:21;;;;;;;2.00;0.40;;;11.30;99.90;;;;;;5094507;28;20042;-57
2022/09/18 06:54:47;;;;;;;5.70;0.40;;;11.30;99.90;;;;;;5091437;28;20040;-58
2022/09/18 06:57:12;;;;;;;4.57;0.27;;;11.30;99.90;;;;;;5103094;28;20288;-58
2022/09/18 06:59:38;;;;;;;2.83;0.27;;;11.30;99.90;;;;;;5087377;28;20143;-58
2022/09/18 07:02:04;;;;;;;2.03;0.57;;;11.30;99.90;;;;;;5089349;28;20122;-55
2022/09/18 07:04:30;;;;;;;3.20;0.45;;;11.30;99.90;;;;;;5082077;28;20432;-57
2022/09/18 07:06:55;;;;;;;3.63;0.60;;;11.30;99.90;;;;;;5090397;28;20115;-58
2022/09/18 07:09:21;;;;;;;3.20;0.47;;;11.40;99.90;;;;;;5091942;28;20028;-58
2022/09/18 07:11:47;;;;;;;3.73;0.50;;;11.40;99.90;;;;;;5088210;28;21295;-57
2022/09/18 07:14:12;;;;;;;2.00;0.33;;;11.40;99.90;;;;;;5090808;28;20080;-58
2022/09/18 07:16:38;;;;;;;4.93;0.80;;;11.40;99.90;;;;;;5091508;28;20331;-57
2022/09/18 07:19:03;;;;;;;7.97;0.82;;;11.40;99.90;;;;;;5090350;28;20032;-57
2022/09/18 07:21:29;;;;;;;7.28;0.52;;;11.50;99.90;;;;;;5079943;28;20039;-54
2022/09/18 07:23:55;;;;;;;4.20;0.40;;;11.50;99.90;;;;;;5089680;28;20485;-57
2022/09/18 07:26:21;;;;;;;4.07;0.33;;;11.40;99.90;;;;;;5089767;28;20043;-58
2022/09/18 07:28:46;;;;;;;1.10;0.43;;;11.40;99.90;;;;;;5090519;28;20323;-57
2022/09/18 07:31:12;;;;;;;6.03;0.30;;;11.40;99.90;;;;;;5085142;28;20040;-56
2022/09/18 07:33:39;;;;;;;6.07;0.82;;;11.40;99.90;;;;;;5089970;28;20040;-58
2022/09/18 07:36:05;;;;;;;4.65;0.50;;;11.40;99.90;;;;;;5091053;28;20036;-55
2022/09/18 07:38:33;;;;;;;3.63;0.40;;;11.50;99.90;;;;;;5090145;28;20397;-54
2022/09/18 07:41:01;;;;;;;6.80;0.50;;;11.50;99.90;;;;;;5092651;28;20095;-58
2022/09/18 07:43:26;;;;;;;7.53;2.30;;;11.50;99.90;;;;;;5087387;28;20051;-56
2022/09/18 07:45:52;;;;;;;11.33;4.90;;;11.50;99.90;;;;;;5079357;28;20044;-57
2022/09/18 07:48:18;;;;;;;12.60;5.30;;;11.50;99.90;;;;;;5091295;28;20162;-56
2022/09/18 07:50:45;;;;;;;3.27;1.13;;;11.60;99.90;;;;;;5089931;28;20055;-57
2022/09/18 07:53:11;;;;;;;10.52;4.18;;;11.50;99.90;;;;;;5090720;28;20063;-57
2022/09/18 07:55:36;;;;;;;46.92;26.25;;;11.60;99.90;;;;;;5090279;28;20094;-57
2022/09/18 07:58:05;;;;;;;47.90;28.23;;;11.60;99.90;;;;;;5090909;28;20039;-55
2022/09/18 08:00:33;;;;;;;4.53;0.60;;;11.60;99.90;;;;;;5075858;28;20077;-56
2022/09/18 08:03:08;;;;;;;5.03;1.05;;;11.60;99.90;;;;;;5070214;28;20052;-57
2022/09/18 08:05:34;;;;;;;6.10;1.02;;;11.60;99.90;;;;;;5099296;28;20111;-58
2022/09/18 08:08:08;;;;;;;5.75;0.75;;;11.60;99.90;;;;;;5104922;28;20040;-58
2022/09/18 08:10:35;;;;;;;6.00;0.75;;;11.60;99.90;;;;;;5110968;28;20040;-57
2022/09/18 08:13:01;;;;;;;;;;;11.60;99.90;;;;;;5092093;28;20142;-58
2022/09/18 08:15:31;;;;;;;6.67;3.60;;;11.60;99.90;;;;;;5090676;28;20002;-56
2022/09/18 08:17:57;;;;;;;8.60;3.13;;;11.60;99.90;;;;;;5090398;28;20063;-58
2022/09/18 08:20:22;;;;;;;9.83;3.13;;;11.60;99.90;;;;;;5092593;28;20454;-58
2022/09/18 08:22:49;;;;;;;4.10;0.68;;;11.60;99.90;;;;;;5075793;28;20384;-56
2022/09/18 08:25:15;;;;;;;11.27;1.50;;;11.70;99.90;;;;;;5074272;28;20032;-56
2022/09/18 08:27:41;;;;;;;4.95;1.58;;;11.60;99.90;;;;;;5090425;28;20304;-58
2022/09/18 08:30:09;;;;;;;4.60;0.53;;;11.60;99.90;;;;;;5093276;28;20428;-57
2022/09/18 08:32:35;;;;;;;6.43;2.28;;;11.60;99.90;;;;;;5089363;28;20294;-56
2022/09/18 08:35:02;;;;;;;6.82;1.42;;;11.50;99.90;;;;;;5089337;28;20478;-56
2022/09/18 08:37:28;;;;;;;;;;;11.50;99.90;;;;;;5090784;28;20075;-57
2022/09/18 08:39:53;;;;;;;6.88;2.25;;;11.50;99.90;;;;;;5088835;28;19923;-57
2022/09/18 08:42:51;;;;;;;14.37;8.47;;;11.50;99.90;;;;;;5088939;28;20047;-58
2022/09/18 08:45:16;;;;;;;8.68;5.55;;;11.50;99.90;;;;;;5073349;28;20047;-53
2022/09/18 08:47:55;;;;;;;7.87;3.23;;;11.60;99.90;;;;;;5073905;28;20652;-57
2022/09/18 08:50:27;;;;;;;6.13;3.53;;;11.50;99.90;;;;;;5083124;28;20555;-56
2022/09/18 08:52:58;;;;;;;6.20;1.27;;;11.50;99.90;;;;;;5110782;27;20059;-58
2022/09/18 08:55:29;;;;;;;5.18;3.10;;;11.50;99.90;;;;;;5096489;28;20455;-58
2022/09/18 08:58:09;;;;;;;2.00;0.22;;;11.50;99.90;;;;;;5094251;28;20515;-55
2022/09/18 09:00:48;;;;;;;4.47;0.60;;;11.50;99.90;;;;;;5105466;28;20047;-51
2022/09/18 09:03:54;;;;;;;4.32;0.70;;;11.60;99.90;;;;;;5094383;28;20047;-58
2022/09/18 09:06:22;;;;;;;10.50;6.03;;;11.60;99.90;;;;;;5090365;28;20236;-57
2022/09/18 09:08:48;;;;;;;7.20;2.35;;;11.60;99.90;;;;;;5083862;28;20039;-58
2022/09/18 09:11:25;;;;;;;8.07;1.73;;;11.70;99.90;;;;;;5093253;28;20067;-56
2022/09/18 09:14:06;;;;;;;;;;;11.70;99.90;;;;;;5076772;28;20036;-57
2022/09/18 09:16:59;;;;;;;4.63;0.50;;;11.70;99.90;;;;;;5087176;28;19923;-55
2022/09/18 09:19:40;;;;;;;4.18;0.43;;;11.70;99.90;;;;;;5093185;28;20107;-57
2022/09/18 09:22:23;;;;;;;6.35;0.60;;;11.70;99.90;;;;;;5092861;28;20101;-57
2022/09/18 09:25:22;;;;;;;3.25;0.60;;;11.70;99.90;;;;;;5094278;28;20050;-52
2022/09/18 09:27:59;;;;;;;3.15;0.70;;;11.80;99.90;;;;;;5096323;28;20055;-55
2022/09/18 09:30:28;;;;;;;6.40;0.60;;;11.90;99.90;;;;;;5081060;28;20049;-53
2022/09/18 09:33:01;;;;;;;6.10;0.30;;;11.80;99.90;;;;;;5071508;28;20509;-55
2022/09/18 09:35:37;;;;;;;3.53;0.30;;;11.80;99.90;;;;;;5086749;28;20039;-54
2022/09/18 09:38:21;;;;;;;4.35;0.30;;;11.90;99.90;;;;;;5074247;28;20398;-53
2022/09/18 09:40:51;;;;;;;3.15;0.30;;;11.80;99.90;;;;;;5084338;28;20263;-53
2022/09/18 09:43:27;;;;;;;7.65;0.57;;;11.90;99.90;;;;;;5081738;28;20466;-55
2022/09/18 09:45:58;;;;;;;1.88;0.32;;;11.90;99.90;;;;;;5088119;28;20117;-56
2022/09/18 09:48:33;;;;;;;6.72;0.40;;;11.90;99.90;;;;;;5094134;28;20114;-55
2022/09/18 09:51:09;;;;;;;2.72;0.20;;;11.90;99.90;;;;;;5083333;28;20052;-52
2022/09/18 09:53:35;;;;;;;2.97;0.63;;;11.90;99.90;;;;;;5089074;28;20032;-52
2022/09/18 09:56:30;;;;;;;5.35;0.40;;;11.90;99.90;;;;;;5088098;28;20036;-52
2022/09/18 09:59:17;;;;;;;8.32;0.30;;;11.90;99.90;;;;;;5099355;28;20036;-52
2022/09/18 10:01:57;;;;;;;2.67;0.47;;;11.90;99.90;;;;;;5072817;28;20386;-56
2022/09/18 10:05:01;;;;;;;1.95;0.45;;;12.00;99.90;;;;;;5085237;28;20044;-52
2022/09/18 10:07:38;;;;;;;1.38;0.32;;;12.00;99.90;;;;;;5073560;28;20497;-55
2022/09/18 10:10:40;;;;;;;1.52;0.10;;;11.90;99.90;;;;;;5086180;28;20047;-53
2022/09/18 10:13:16;;;;;;;2.55;0.70;;;12.00;99.90;;;;;;5083728;28;20041;-53
2022/09/18 10:15:52;;;;;;;4.30;0.63;;;11.90;99.90;;;;;;5096441;28;20047;-53
2022/09/18 10:18:22;;;;;;;1.23;0.50;;;11.90;99.90;;;;;;5071146;28;20040;-53
2022/09/18 10:20:51;;;;;;;8.57;2.13;;;11.90;99.90;;;;;;5090764;28;20043;-52
2022/09/18 10:23:25;;;;;;;3.60;0.63;;;11.90;99.90;;;;;;5091967;28;20036;-53
2022/09/18 10:25:57;;;;;;;9.60;3.22;;;11.90;99.90;;;;;;5097836;28;20036;-53
2022/09/18 10:28:25;;;;;;;5.85;0.70;;;11.90;99.90;;;;;;5092564;28;20036;-53
2022/09/18 10:31:10;;;;;;;2.08;0.50;;;11.90;99.90;;;;;;5093271;28;20047;-55
2022/09/18 10:33:39;;;;;;;2.80;0.30;;;11.90;99.90;;;;;;5092377;28;20032;-55
2022/09/18 10:36:18;;;;;;;0.77;0.25;;;11.90;99.90;;;;;;5082497;28;20032;-54
2022/09/18 10:38:45;;;;;;;4.22;0.40;;;11.90;99.90;;;;;;5077859;28;20087;-52
2022/09/18 10:41:30;;;;;;;3.40;0.68;;;11.90;99.90;;;;;;5086432;28;20036;-52
2022/09/18 10:44:04;;;;;;;3.00;0.50;;;11.90;99.90;;;;;;5091588;28;20043;-52
2022/09/18 10:46:33;;;;;;;4.35;0.30;;;11.90;99.90;;;;;;5070600;28;20123;-53
2022/09/18 10:49:16;;;;;;;3.72;0.10;;;11.90;99.90;;;;;;5095638;28;20040;-56
2022/09/18 10:51:42;;;;;;;3.38;0.30;;;11.90;99.90;;;;;;5097313;28;20097;-54
2022/09/18 10:54:21;;;;;;;5.40;0.20;;;11.90;99.90;;;;;;5111149;28;20031;-54
2022/09/18 10:56:48;;;;;;;1.83;0.30;;;12.00;99.90;;;;;;5112348;28;20561;-55
2022/09/18 10:59:25;;;;;;;2.15;0.60;;;12.00;99.90;;;;;;5093403;28;20032;-54
2022/09/18 11:01:56;;;;;;;0.80;0.10;;;12.00;99.90;;;;;;5084619;28;20405;-51
2022/09/18 11:04:22;;;;;;;7.55;0.30;;;12.00;99.90;;;;;;5091098;28;20067;-54
2022/09/18 11:06:47;;;;;;;1.20;0.50;;;12.10;99.90;;;;;;5090538;28;20059;-53
2022/09/18 11:09:18;;;;;;;5.22;0.40;;;12.10;99.90;;;;;;5077079;28;20032;-52
2022/09/18 11:11:50;;;;;;;3.08;0.25;;;12.20;99.90;;;;;;5086754;28;20046;-54
2022/09/18 11:14:20;;;;;;;2.63;0.45;;;12.20;99.90;;;;;;5089687;28;20373;-53
2022/09/18 11:16:49;;;;;;;6.68;0.30;;;12.20;99.90;;;;;;5075506;28;20194;-56
2022/09/18 11:19:26;;;;;;;1.58;0.20;;;12.20;99.90;;;;;;5082908;28;20451;-54
2022/09/18 11:21:54;;;;;;;3.25;0.47;;;12.20;99.90;;;;;;5075714;28;20557;-53
2022/09/18 11:24:26;;;;;;;5.45;0.20;;;12.30;99.90;;;;;;5084799;28;20039;-56
2022/09/18 11:26:59;;;;;;;5.97;0.57;;;12.30;99.90;;;;;;5083404;28;20497;-55
2022/09/18 11:29:29;;;;;;;5.88;0.50;;;12.30;99.90;;;;;;5087064;28;20040;-55
2022/09/18 11:32:17;;;;;;;7.97;1.00;;;12.30;99.90;;;;;;5086106;28;20404;-58
2022/09/18 11:34:47;;;;;;;4.18;0.60;;;12.30;99.90;;;;;;5086204;28;20606;-57
2022/09/18 11:37:29;;;;;;;6.18;0.35;;;12.40;99.90;;;;;;5087097;28;20039;-58
2022/09/18 11:40:00;;;;;;;2.55;0.60;;;12.30;99.90;;;;;;5087405;28;20454;-56
2022/09/18 11:42:26;;;;;;;3.45;0.20;;;12.30;99.90;;;;;;5095092;28;20093;-55
2022/09/18 11:44:52;;;;;;;4.55;0.50;;;12.30;99.90;;;;;;5085438;28;20044;-58
2022/09/18 11:47:29;;;;;;;3.92;0.35;;;12.40;99.90;;;;;;5096055;28;20292;-55
2022/09/18 11:50:10;;;;;;;1.50;0.30;;;12.40;99.90;;;;;;5098083;28;20058;-57
2022/09/18 11:53:00;;;;;;;6.53;0.50;;;12.40;99.90;;;;;;5085185;28;20055;-55
2022/09/18 11:56:02;;;;;;;9.15;0.57;;;12.50;99.90;;;;;;5086718;28;20042;-56
2022/09/18 11:58:46;;;;;;;5.60;0.52;;;12.60;99.90;;;;;;5087038;28;20051;-50
2022/09/18 12:01:41;;;;;;;3.88;0.93;;;12.60;99.90;;;;;;5094750;28;20114;-54
2022/09/18 12:04:40;;;;;;;3.28;0.40;;;12.70;99.90;;;;;;5091024;28;20043;-50
2022/09/18 12:07:58;;;;;;;4.80;0.20;;;12.80;99.90;;;;;;5078568;28;20036;-53
2022/09/18 12:10:46;;;;;;;4.72;0.77;;;12.80;99.90;;;;;;5060600;28;20097;-54
2022/09/18 12:13:30;;;;;;;4.88;0.50;;;12.90;99.90;;;;;;5074600;28;20040;-56
2022/09/18 12:16:14;;;;;;;3.78;0.40;;;12.90;99.90;;;;;;5081370;28;20035;-57
2022/09/18 12:18:51;;;;;;;4.65;0.30;;;12.90;99.90;;;;;;5072140;28;20036;-58
2022/09/18 12:21:22;;;;;;;4.32;0.50;;;13.00;99.90;;;;;;5077183;28;20606;-54
2022/09/18 12:23:47;;;;;;;10.35;1.05;;;13.00;99.90;;;;;;5047852;28;20048;-57
2022/09/18 12:26:27;;;;;;;8.13;1.10;;;13.10;99.90;;;;;;5048998;28;20040;-56
2022/09/18 12:29:18;;;;;;;4.85;0.70;;;13.20;99.90;;;;;;5063884;28;20158;-58
2022/09/18 12:31:55;;;;;;;6.75;0.45;;;13.20;99.90;;;;;;5069955;28;20500;-56
2022/09/18 12:34:23;;;;;;;3.97;0.50;;;13.30;99.90;;;;;;5069023;28;20111;-54
2022/09/18 12:37:07;;;;;;;12.63;1.40;;;13.30;99.90;;;;;;5071804;28;20036;-57
2022/09/18 12:40:09;;;;;;;4.45;0.88;;;13.30;99.90;;;;;;5071821;28;20055;-56
2022/09/18 12:42:52;;;;;;;5.35;0.68;;;13.40;99.90;;;;;;5052781;28;20032;-56
2022/09/18 12:45:30;;;;;;;8.25;0.95;;;13.40;99.90;;;;;;5069918;28;20523;-57
2022/09/18 12:48:27;;;;;;;89.00;61.30;;;13.40;99.90;;;;;;5089116;28;20193;-55
2022/09/18 12:51:19;;;;;;;5.25;1.63;;;13.50;99.90;;;;;;5085587;28;20047;-57
2022/09/18 12:54:09;;;;;;;6.32;0.45;;;13.60;99.90;;;;;;5087736;28;20516;-56
2022/09/18 12:56:52;;;;;;;10.02;1.38;;;13.60;99.90;;;;;;5091558;28;20028;-56
2022/09/18 12:59:49;;;;;;;5.13;0.40;;;13.60;99.90;;;;;;5092614;28;20040;-57
2022/09/18 13:02:33;;;;;;;5.10;0.68;;;13.70;99.90;;;;;;5095849;28;20560;-56
2022/09/18 13:05:12;;;;;;;9.52;1.17;;;13.70;99.90;;;;;;5092375;28;20043;-57
2022/09/18 13:08:00;;;;;;;7.47;0.57;;;13.70;99.90;;;;;;5090280;28;20036;-53
2022/09/18 13:10:36;;;;;;;25.70;1.95;;;13.70;99.90;;;;;;5095161;28;20052;-56
2022/09/18 13:13:11;;;;;;;5.05;0.77;;;13.70;99.90;;;;;;5097208;28;20560;-56